Time;durP1;ratioP1;P1;durP2;ratioP2;P2;SDS_P1;SDS_P2;PMS_P1;PMS_P2;Temp;Humidity;BMP_temperature;BMP_pressure;BME280_temperature;BME280_humidity;BME280_pressure;Samples;Min_cycle;Max_cycle;Signal;HPM_P1;HPM_P2
2021/07/09 00:01:45;;;;;;;0.30;0.30;;;;;;;18.75;80.77;99066.72;5093098;28;41477;-79
2021/07/09 00:04:14;;;;;;;0.60;0.60;;;;;;;18.71;80.67;99063.47;5110207;28;40816;-79
2021/07/09 00:06:42;;;;;;;0.40;0.40;;;;;;;18.58;80.49;99041.47;5125221;27;42016;-78
2021/07/09 00:09:11;;;;;;;0.50;0.50;;;;;;;18.67;80.79;99071.97;5113426;27;42495;-77
2021/07/09 00:11:41;;;;;;;0.63;0.63;;;;;;;18.52;81.07;99042.00;5130765;27;43051;-77
2021/07/09 00:14:12;;;;;;;0.70;0.70;;;;;;;18.65;80.95;99066.75;5128192;27;40637;-78
2021/07/09 00:16:41;;;;;;;0.60;0.60;;;;;;;18.63;81.27;99066.88;5109321;28;42917;-78
2021/07/09 00:19:09;;;;;;;0.60;0.47;;;;;;;18.35;80.87;99027.44;5109522;28;41744;-79
2021/07/09 00:21:37;;;;;;;0.43;0.43;;;;;;;18.55;81.27;99063.16;5127308;27;42597;-79
2021/07/09 00:24:06;;;;;;;0.50;0.50;;;;;;;18.50;81.45;99054.69;5092645;28;39017;-78
2021/07/09 00:26:35;;;;;;;0.43;0.43;;;;;;;18.52;81.66;99056.25;5109767;28;42554;-78
2021/07/09 00:29:07;;;;;;;0.63;0.63;;;;;;;18.46;81.33;99043.41;5109947;28;42973;-78
2021/07/09 00:31:36;;;;;;;0.40;0.40;;;;;;;18.53;81.16;99043.69;5128499;27;42371;-77
2021/07/09 00:34:06;;;;;;;0.80;0.70;;;;;;;18.30;82.05;99014.47;5112825;27;39070;-77
2021/07/09 00:36:35;;;;;;;0.90;0.60;;;;;;;18.46;81.99;99037.19;5129413;27;40763;-77
2021/07/09 00:39:04;;;;;;;0.80;0.80;;;;;;;18.44;82.15;99039.16;5129179;27;41791;-78
2021/07/09 00:41:31;;;;;;;0.67;0.67;;;;;;;18.44;82.37;99039.16;5115670;27;42422;-79
2021/07/09 00:43:59;;;;;;;0.80;0.80;;;;;;;18.16;82.23;98987.25;5092093;28;40861;-77
2021/07/09 00:46:36;;;;;;;0.77;0.77;;;;;;;18.45;82.43;99038.16;5093171;28;40773;-79
2021/07/09 00:49:05;;;;;;;1.00;1.00;;;;;;;18.42;82.38;99033.13;5091677;28;43138;-77
2021/07/09 00:51:33;;;;;;;0.80;0.80;;;;;;;18.41;82.45;99029.59;5110030;28;42466;-78
2021/07/09 00:54:01;;;;;;;0.70;0.70;;;;;;;18.36;82.77;99018.41;5109369;28;39873;-79
2021/07/09 00:56:30;;;;;;;0.73;0.73;;;;;;;18.38;82.98;99027.19;5126886;27;42788;-81
2021/07/09 00:58:59;;;;;;;0.70;0.70;;;;;;;18.36;83.11;99025.63;5110727;27;42894;-80
2021/07/09 01:01:27;;;;;;;0.60;0.60;;;;;;;17.95;82.87;98963.22;5131600;27;41542;-79
2021/07/09 01:03:56;;;;;;;1.30;1.20;;;;;;;18.31;83.17;99026.03;5147111;27;40154;-80
2021/07/09 01:06:24;;;;;;;0.70;0.70;;;;;;;18.27;83.03;99017.44;5143534;27;42235;-78
2021/07/09 01:08:52;;;;;;;0.50;0.50;;;;;;;18.31;83.46;99023.34;5133134;27;44092;-78
2021/07/09 01:11:20;;;;;;;0.90;0.90;;;;;;;18.31;83.08;99018.84;5105810;28;42382;-79
2021/07/09 01:13:49;;;;;;;0.80;0.80;;;;;;;18.22;83.45;99002.75;5123028;28;40533;-78
2021/07/09 01:16:17;;;;;;;0.70;0.70;;;;;;;18.30;83.44;99019.81;5141094;27;41884;-78
2021/07/09 01:18:44;;;;;;;0.80;0.80;;;;;;;18.20;83.24;99005.56;5138288;27;43582;-81
2021/07/09 01:21:14;;;;;;;0.80;0.80;;;;;;;18.29;83.68;99015.47;5115178;27;41193;-80
2021/07/09 01:23:43;;;;;;;1.00;0.80;;;;;;;18.31;83.34;99020.66;5134939;27;40310;-78
2021/07/09 01:26:13;;;;;;;1.00;1.00;;;;;;;18.30;83.42;99021.66;5134802;27;42823;-81
2021/07/09 01:28:41;;;;;;;0.97;0.77;;;;;;;18.27;83.41;99021.97;5133903;27;43570;-77
2021/07/09 01:31:09;;;;;;;0.53;0.53;;;;;;;18.26;83.73;99021.09;5130627;27;41615;-79
2021/07/09 01:33:38;;;;;;;0.90;0.90;;;;;;;18.23;83.46;99010.66;5115605;27;39833;-80
2021/07/09 01:36:06;;;;;;;1.33;1.23;;;;;;;18.22;83.92;99014.31;5132752;27;40741;-80
2021/07/09 01:38:34;;;;;;;0.90;0.80;;;;;;;18.19;84.00;99016.44;5129399;27;41997;-79
2021/07/09 01:41:02;;;;;;;0.73;0.73;;;;;;;18.08;83.78;98995.97;5112374;28;42218;-78
2021/07/09 01:43:32;;;;;;;1.00;0.90;;;;;;;18.16;83.66;99004.19;5112678;28;40153;-79
2021/07/09 01:46:00;;;;;;;0.73;0.73;;;;;;;18.12;83.51;99001.91;5094594;28;40871;-79
2021/07/09 01:48:28;;;;;;;1.00;1.00;;;;;;;18.12;84.11;98999.22;5095263;28;41930;-77
2021/07/09 01:50:56;;;;;;;0.50;0.50;;;;;;;18.02;83.85;98988.50;5112649;28;43219;-80
2021/07/09 01:53:24;;;;;;;0.60;0.60;;;;;;;18.11;83.81;99009.09;5112391;28;38776;-78
2021/07/09 01:55:52;;;;;;;0.93;0.93;;;;;;;18.00;83.78;98995.81;5112335;28;41739;-78
2021/07/09 01:58:20;;;;;;;1.53;1.10;;;;;;;18.03;83.86;98998.25;5112766;28;43729;-78
2021/07/09 02:00:49;;;;;;;0.70;0.70;;;;;;;18.10;84.03;99015.44;5098759;27;42510;-80
2021/07/09 02:03:17;;;;;;;0.80;0.80;;;;;;;18.08;83.89;99006.69;5115631;27;39078;-78
2021/07/09 02:05:45;;;;;;;0.53;0.53;;;;;;;18.07;84.14;99010.34;5134169;27;42540;-77
2021/07/09 02:08:15;;;;;;;0.80;0.80;;;;;;;18.08;83.67;99005.84;5115750;27;41582;-79
2021/07/09 02:10:44;;;;;;;0.73;0.73;;;;;;;18.03;84.03;98992.88;5130978;27;41248;-82
2021/07/09 02:13:13;;;;;;;0.70;0.70;;;;;;;17.99;84.06;98996.81;5131885;27;40721;-77
2021/07/09 02:15:43;;;;;;;0.63;0.63;;;;;;;18.02;84.02;99001.91;5132550;27;40845;-80
2021/07/09 02:18:14;;;;;;;0.60;0.60;;;;;;;18.04;83.82;99001.75;5094981;28;41902;-77
2021/07/09 02:20:43;;;;;;;0.90;0.90;;;;;;;18.07;83.50;98999.63;5111825;28;42367;-78
2021/07/09 02:23:14;;;;;;;3.80;1.57;;;;;;;18.04;84.00;98996.41;5111545;28;40870;-77
2021/07/09 02:25:42;;;;;;;0.80;0.80;;;;;;;17.98;84.12;98988.91;5094704;28;41160;-79
2021/07/09 02:28:10;;;;;;;0.50;0.50;;;;;;;18.02;83.67;98993.00;5112766;28;43812;-78
2021/07/09 02:30:37;;;;;;;0.40;0.40;;;;;;;18.02;84.07;98990.34;5112579;28;42349;-78
2021/07/09 02:33:05;;;;;;;0.60;0.60;;;;;;;17.97;83.78;98981.84;5129298;27;39809;-79
2021/07/09 02:35:37;;;;;;;0.80;0.80;;;;;;;18.00;83.93;98993.16;5131895;27;41726;-79
2021/07/09 02:38:06;;;;;;;0.60;0.53;;;;;;;17.95;84.06;98985.50;5133204;27;44606;-79
2021/07/09 02:40:35;;;;;;;0.50;0.50;;;;;;;17.98;84.18;98983.53;5125511;27;41533;-77
2021/07/09 02:43:06;;;;;;;0.73;0.73;;;;;;;17.96;83.91;98991.72;5111248;28;40118;-79
2021/07/09 02:45:34;;;;;;;1.23;1.13;;;;;;;17.94;84.22;98988.31;5112569;28;42041;-78
2021/07/09 02:48:01;;;;;;;0.80;0.80;;;;;;;17.94;83.79;98994.53;5112519;28;43658;-77
2021/07/09 02:50:30;;;;;;;1.00;1.00;;;;;;;17.92;84.20;98984.97;5113472;27;43237;-78
2021/07/09 02:52:59;;;;;;;0.50;0.50;;;;;;;17.90;84.40;98981.56;5132016;27;40169;-77
2021/07/09 02:55:27;;;;;;;0.70;0.70;;;;;;;17.87;84.44;98984.53;5132177;27;42060;-77
2021/07/09 02:57:54;;;;;;;0.97;0.97;;;;;;;17.86;84.19;98975.63;5131867;27;41872;-77
2021/07/09 03:00:22;;;;;;;0.80;0.80;;;;;;;17.88;84.18;98978.19;5119687;27;43325;-78
2021/07/09 03:02:50;;;;;;;0.70;0.50;;;;;;;17.86;84.47;98972.13;5094774;28;39110;-79
2021/07/09 03:05:18;;;;;;;0.50;0.50;;;;;;;17.85;84.19;98975.78;5111125;28;42035;-78
2021/07/09 03:07:46;;;;;;;0.53;0.53;;;;;;;17.84;84.33;98976.75;5128332;27;42889;-78
2021/07/09 03:10:15;;;;;;;0.57;0.57;;;;;;;17.81;84.26;98971.66;5130945;27;42204;-78
2021/07/09 03:12:43;;;;;;;0.40;0.40;;;;;;;17.50;84.16;98920.84;5131022;27;41750;-78
2021/07/09 03:15:12;;;;;;;0.50;0.50;;;;;;;17.82;84.60;98973.38;5125050;27;40784;-80
2021/07/09 03:17:41;;;;;;;0.60;0.60;;;;;;;17.82;84.52;98974.22;5110213;28;42039;-77
2021/07/09 03:20:11;;;;;;;0.80;0.80;;;;;;;17.82;84.60;98974.22;5110506;28;42118;-77
2021/07/09 03:22:40;;;;;;;0.40;0.40;;;;;;;17.81;84.44;98982.38;5093619;28;39179;-79
2021/07/09 03:25:09;;;;;;;0.83;0.77;;;;;;;17.81;84.43;98977.88;5112067;28;41914;-79
2021/07/09 03:27:38;;;;;;;0.63;0.63;;;;;;;17.80;84.64;98978.03;5110673;28;42881;-79
2021/07/09 03:30:07;;;;;;;0.70;0.70;;;;;;;17.76;84.61;98968.56;5094677;28;41350;-78
2021/07/09 03:32:35;;;;;;;0.50;0.50;;;;;;;17.74;84.52;98975.91;5110225;28;40312;-78
2021/07/09 03:35:04;;;;;;;0.70;0.70;;;;;;;17.72;84.63;98972.50;5094480;28;40799;-79
2021/07/09 03:37:32;;;;;;;0.60;0.60;;;;;;;17.69;84.27;98973.63;5111423;28;43142;-79
2021/07/09 03:39:59;;;;;;;0.63;0.63;;;;;;;17.66;84.61;98967.72;5090518;28;41352;-79
2021/07/09 03:42:27;;;;;;;0.70;0.70;;;;;;;17.69;84.61;98978.97;5110705;28;39992;-78
2021/07/09 03:44:56;;;;;;;0.87;0.70;;;;;;;17.64;85.13;98970.53;5109139;28;41611;-79
2021/07/09 03:47:24;;;;;;;0.53;0.53;;;;;;;17.58;84.88;98965.66;5109891;28;41643;-78
2021/07/09 03:49:51;;;;;;;0.87;0.87;;;;;;;17.60;84.66;98963.72;5104178;27;41436;-83
2021/07/09 03:52:19;;;;;;;0.90;0.90;;;;;;;17.44;84.75;98937.44;5130182;27;40032;-79
2021/07/09 03:54:47;;;;;;;0.90;0.90;;;;;;;17.59;85.00;98968.22;5114336;27;40634;-79
2021/07/09 03:57:15;;;;;;;0.60;0.60;;;;;;;17.70;84.84;98985.19;5111727;27;42755;-80
2021/07/09 03:59:42;;;;;;;1.13;1.13;;;;;;;17.67;84.85;98975.63;5129139;27;43227;-79
2021/07/09 04:02:12;;;;;;;0.70;0.70;;;;;;;17.51;85.17;98973.41;5131095;27;41481;-80
2021/07/09 04:04:40;;;;;;;0.90;0.90;;;;;;;17.62;84.85;98987.69;5113694;27;41651;-80
2021/07/09 04:07:08;;;;;;;1.60;0.73;;;;;;;17.63;85.00;99000.09;5129867;27;41629;-80
2021/07/09 04:09:35;;;;;;;0.80;0.60;;;;;;;17.62;84.99;99003.75;5131360;27;42521;-79
2021/07/09 04:12:04;;;;;;;0.40;0.40;;;;;;;17.60;84.81;99011.91;5097355;28;39238;-80
2021/07/09 04:14:31;;;;;;;0.70;0.70;;;;;;;17.49;85.27;98995.97;5127170;27;41744;-79
2021/07/09 04:16:59;;;;;;;0.87;0.87;;;;;;;17.55;85.03;99009.66;5121653;27;41814;-79
2021/07/09 04:19:28;;;;;;;0.73;0.73;;;;;;;17.55;85.52;99019.53;5130857;27;42532;-79
2021/07/09 04:21:56;;;;;;;0.83;0.60;;;;;;;17.36;85.24;98990.00;5130202;27;40178;-79
2021/07/09 04:24:24;;;;;;;0.80;0.80;;;;;;;17.53;85.53;99026.84;5130842;27;41958;-79
2021/07/09 04:26:51;;;;;;;0.63;0.63;;;;;;;17.55;85.11;99020.38;5130366;27;42507;-79
2021/07/09 04:29:19;;;;;;;0.57;0.57;;;;;;;17.56;85.83;99038.13;5129423;27;41506;-80
2021/07/09 04:31:47;;;;;;;0.80;0.80;;;;;;;17.54;85.03;99026.72;5129194;27;40197;-80
2021/07/09 04:34:14;;;;;;;0.80;0.80;;;;;;;17.52;85.46;99036.72;5129217;27;41799;-81
2021/07/09 04:36:44;;;;;;;0.87;0.87;;;;;;;17.53;85.58;99041.09;5123499;27;42745;-79
2021/07/09 04:39:11;;;;;;;0.73;0.73;;;;;;;17.48;85.29;99035.28;5111757;27;41511;-81
2021/07/09 04:41:40;;;;;;;0.70;0.70;;;;;;;17.44;85.54;99023.13;5112895;27;40380;-81
2021/07/09 04:44:08;;;;;;;2.10;0.73;;;;;;;17.52;85.40;99042.06;5113153;27;41953;-82
2021/07/09 04:46:35;;;;;;;0.60;0.60;;;;;;;17.51;85.70;99040.38;5129554;27;42927;-80
2021/07/09 04:49:03;;;;;;;0.50;0.50;;;;;;;17.51;85.55;99040.38;5113011;27;41213;-80
2021/07/09 04:51:31;;;;;;;0.50;0.50;;;;;;;17.54;85.75;99044.63;5113055;27;40056;-81
2021/07/09 04:54:00;;;;;;;0.77;0.77;;;;;;;17.53;85.19;99046.44;5131559;27;42012;-82
2021/07/09 04:56:28;;;;;;;0.77;0.77;;;;;;;17.46;85.24;99031.88;5129919;27;42903;-81
2021/07/09 04:58:57;;;;;;;0.60;0.60;;;;;;;17.56;85.25;99048.81;5129714;27;42395;-80
2021/07/09 05:01:25;;;;;;;0.70;0.70;;;;;;;17.59;85.15;99045.88;5111796;27;39011;-82
2021/07/09 05:03:53;;;;;;;1.20;0.57;;;;;;;17.60;85.30;99049.41;5112526;27;41809;-81
2021/07/09 05:06:21;;;;;;;0.70;0.70;;;;;;;17.58;85.08;99046.00;5129673;27;41730;-81
2021/07/09 05:08:49;;;;;;;0.60;0.60;;;;;;;17.47;85.52;99027.38;5116325;27;42432;-81
2021/07/09 05:11:18;;;;;;;0.60;0.60;;;;;;;17.53;85.08;99038.41;5109272;27;39344;-81
2021/07/09 05:13:46;;;;;;;0.50;0.50;;;;;;;17.42;85.31;99019.75;5112374;27;40701;-82
2021/07/09 05:16:13;;;;;;;0.60;0.60;;;;;;;17.53;85.40;99038.41;5117224;27;43098;-80
2021/07/09 05:18:41;;;;;;;0.70;0.70;;;;;;;17.53;85.58;99038.41;5129659;27;43096;-82
2021/07/09 05:21:09;;;;;;;0.57;0.57;;;;;;;17.41;85.35;99023.41;5111072;27;40339;-83
2021/07/09 05:23:37;;;;;;;0.50;0.50;;;;;;;17.52;85.98;99039.38;5109215;28;41725;-86
2021/07/09 05:26:05;;;;;;;0.70;0.60;;;;;;;17.48;85.78;99035.28;5110132;28;42987;-83
2021/07/09 05:28:34;;;;;;;0.50;0.50;;;;;;;17.47;85.73;99020.19;5109643;28;43469;-82
2021/07/09 05:31:02;;;;;;;0.70;0.70;;;;;;;17.55;85.55;99036.44;5113612;27;40221;-80
2021/07/09 05:33:30;;;;;;;0.50;0.50;;;;;;;17.57;85.20;99050.53;5112493;27;40848;-80
2021/07/09 05:35:57;;;;;;;0.73;0.73;;;;;;;17.54;85.21;99036.56;5112106;27;42728;-80
2021/07/09 05:38:25;;;;;;;0.57;0.57;;;;;;;17.53;85.36;99030.38;5111984;27;41148;-85
2021/07/09 05:40:52;;;;;;;1.07;1.07;;;;;;;17.58;85.44;99046.00;5112022;27;39881;-78
2021/07/09 05:43:20;;;;;;;0.60;0.60;;;;;;;17.56;85.26;99040.78;5128988;27;40856;-86
2021/07/09 05:45:50;;;;;;;0.97;0.97;;;;;;;17.46;85.68;99026.53;5110294;27;41893;-88
2021/07/09 05:48:17;;;;;;;1.10;1.00;;;;;;;17.46;85.79;99021.16;5109386;27;41828;-88
2021/07/09 05:50:45;;;;;;;0.70;0.70;;;;;;;17.53;85.53;99043.75;5114118;27;39074;-90
2021/07/09 05:53:13;;;;;;;0.90;0.90;;;;;;;17.55;86.15;99040.97;5115113;27;40655;-86
2021/07/09 05:55:41;;;;;;;0.80;0.80;;;;;;;17.44;86.30;99028.47;5131328;27;41953;-88
2021/07/09 05:58:09;;;;;;;0.77;0.60;;;;;;;17.51;86.27;99039.53;5115823;27;42204;-89
2021/07/09 06:00:38;;;;;;;1.23;0.90;;;;;;;17.40;86.25;99026.22;5112019;28;38952;-87
2021/07/09 06:03:07;;;;;;;0.83;0.83;;;;;;;17.46;86.33;99033.72;5111964;28;40950;-87
2021/07/09 06:05:35;;;;;;;0.70;0.70;;;;;;;17.52;86.42;99047.41;5095335;27;43271;-82
2021/07/09 06:08:04;;;;;;;0.57;0.57;;;;;;;17.44;86.41;99041.88;5095227;28;41789;-85
2021/07/09 06:10:34;;;;;;;1.40;1.13;;;;;;;17.43;86.28;99042.84;5095253;27;40211;-92
2021/07/09 06:13:01;;;;;;;0.97;0.97;;;;;;;17.40;86.53;99048.50;5114992;27;40726;-89
2021/07/09 06:15:29;;;;;;;1.30;1.20;;;;;;;17.41;86.73;99044.00;5114986;27;42748;-83
2021/07/09 06:17:57;;;;;;;0.87;0.87;;;;;;;17.49;86.44;99062.91;5124173;27;41302;-83
2021/07/09 06:20:26;;;;;;;3.10;1.17;;;;;;;17.28;86.86;99040.69;5114955;27;39289;-83
2021/07/09 06:22:54;;;;;;;0.70;0.70;;;;;;;17.48;86.46;99088.81;5114483;27;41206;-84
2021/07/09 06:25:22;;;;;;;0.70;0.70;;;;;;;17.50;86.84;99091.38;5132433;27;43885;-85
2021/07/09 06:27:50;;;;;;;0.77;0.70;;;;;;;17.52;86.58;99097.44;5114278;27;42560;-85
2021/07/09 06:30:18;;;;;;;0.67;0.67;;;;;;;17.44;86.42;99083.88;5111349;27;39779;-85
2021/07/09 06:32:46;;;;;;;0.60;0.60;;;;;;;17.57;86.21;99108.59;5095115;28;42092;-89
2021/07/09 06:35:15;;;;;;;0.67;0.67;;;;;;;17.58;86.20;99111.13;5096617;28;41772;-84
2021/07/09 06:37:44;;;;;;;0.80;0.80;;;;;;;17.51;86.09;99093.06;5131271;27;42396;-88
2021/07/09 06:40:13;;;;;;;0.50;0.50;;;;;;;17.52;86.09;99100.97;5133203;27;40331;-89
2021/07/09 06:42:41;;;;;;;0.70;0.70;;;;;;;17.54;86.38;99098.16;5115329;27;40975;-90
2021/07/09 06:45:09;;;;;;;0.67;0.67;;;;;;;17.63;86.16;99117.94;5111838;28;43136;-88
2021/07/09 06:47:37;;;;;;;0.60;0.50;;;;;;;17.53;86.39;99094.66;5094688;28;42475;-86
2021/07/09 06:50:06;;;;;;;0.40;0.40;;;;;;;17.60;86.07;99111.84;5093738;28;39306;-85
2021/07/09 06:52:33;;;;;;;0.70;0.70;;;;;;;17.55;86.36;99100.72;5111617;27;40843;-89
2021/07/09 06:55:03;;;;;;;0.40;0.40;;;;;;;17.55;86.25;99098.03;5115290;27;41917;-92
2021/07/09 06:57:31;;;;;;;0.60;0.60;;;;;;;17.50;85.88;99076.16;5115171;27;41434;-86
2021/07/09 06:59:58;;;;;;;0.40;0.40;;;;;;;17.65;86.05;99099.94;5114360;27;38945;-82
2021/07/09 07:02:26;;;;;;;0.43;0.43;;;;;;;17.76;85.90;99118.59;5111070;27;42093;-84
2021/07/09 07:04:54;;;;;;;0.43;0.43;;;;;;;17.62;85.66;99105.53;5114691;27;41775;-86
2021/07/09 07:07:21;;;;;;;0.30;0.30;;;;;;;17.65;85.80;99107.97;5112332;27;42206;-86
2021/07/09 07:09:49;;;;;;;0.40;0.40;;;;;;;17.66;85.83;99115.03;5129228;27;40361;-85
2021/07/09 07:12:18;;;;;;;0.50;0.50;;;;;;;17.50;85.54;99097.59;5112785;27;40949;-86
2021/07/09 07:14:46;;;;;;;0.50;0.50;;;;;;;17.60;85.64;99119.91;5113881;27;43876;-88
2021/07/09 07:17:16;;;;;;;0.63;0.60;;;;;;;17.62;85.70;99121.59;5111457;27;41377;-91
2021/07/09 07:19:43;;;;;;;0.60;0.60;;;;;;;17.59;85.67;99117.34;5114085;27;40220;-92
2021/07/09 07:22:11;;;;;;;0.37;0.37;;;;;;;17.73;85.56;99134.94;5115259;27;41792;-89
2021/07/09 07:24:39;;;;;;;0.40;0.40;;;;;;;17.65;85.42;99118.69;5112860;27;41806;-85
2021/07/09 07:27:07;;;;;;;0.60;0.60;;;;;;;17.77;85.60;99131.00;5112322;27;41316;-84
2021/07/09 07:29:37;;;;;;;0.40;0.40;;;;;;;17.70;85.61;99119.13;5111805;27;39436;-85
2021/07/09 07:32:05;;;;;;;0.60;0.60;;;;;;;17.86;85.54;99146.25;5111587;27;40676;-88
2021/07/09 07:34:32;;;;;;;0.40;0.40;;;;;;;17.86;85.37;99139.06;5131913;27;41789;-84
2021/07/09 07:37:00;;;;;;;0.43;0.43;;;;;;;17.79;85.35;99131.72;5112969;27;41657;-87
2021/07/09 07:39:28;;;;;;;0.50;0.50;;;;;;;17.73;85.26;99135.78;5131572;27;39142;-87
2021/07/09 07:41:56;;;;;;;0.47;0.47;;;;;;;17.72;85.13;99144.78;5113774;27;40682;-89
2021/07/09 07:44:26;;;;;;;0.63;0.50;;;;;;;17.66;85.28;99141.81;5110246;28;41944;-86
2021/07/09 07:46:56;;;;;;;0.40;0.40;;;;;;;17.65;85.71;99158.88;5103985;27;41567;-91
2021/07/09 07:49:24;;;;;;;0.70;0.70;;;;;;;17.54;85.68;99146.38;5113865;27;39205;-89
2021/07/09 07:51:53;;;;;;;0.40;0.40;;;;;;;17.54;85.90;99165.97;5113814;27;40831;-89
2021/07/09 07:54:21;;;;;;;0.50;0.50;;;;;;;17.51;85.75;99152.84;5113591;27;42564;-88
2021/07/09 07:56:49;;;;;;;0.43;0.43;;;;;;;17.55;85.93;99154.28;5106592;27;42096;-87
2021/07/09 07:59:16;;;;;;;0.43;0.43;;;;;;;17.51;85.50;99150.16;5113901;27;39010;-88
2021/07/09 08:01:44;;;;;;;0.40;0.40;;;;;;;17.53;85.62;99150.88;5110012;28;41100;-88
2021/07/09 08:04:20;;;;;;;0.40;0.40;;;;;;;17.61;85.40;99158.25;5093353;28;41932;-85
2021/07/09 08:06:50;;;;;;;0.50;0.50;;;;;;;17.66;85.60;99160.56;5103626;27;42268;-87
2021/07/09 08:09:18;;;;;;;0.43;0.43;;;;;;;17.67;85.17;99172.97;5113904;27;40104;-87
2021/07/09 08:11:50;;;;;;;0.60;0.60;;;;;;;17.73;85.22;99164.41;5128910;27;41013;-86
2021/07/09 08:14:18;;;;;;;0.47;0.47;;;;;;;17.74;85.31;99172.31;5113040;27;42977;-87
2021/07/09 08:16:50;;;;;;;0.40;0.40;;;;;;;17.79;85.02;99167.41;5106376;28;41333;-87
2021/07/09 08:19:22;;;;;;;0.40;0.40;;;;;;;17.93;84.72;99190.28;5092569;28;39171;-83
2021/07/09 08:21:50;;;;;;;0.60;0.40;;;;;;;17.86;85.00;99173.06;5102465;28;42013;-85
2021/07/09 08:24:19;;;;;;;0.30;0.30;;;;;;;17.90;85.15;99179.84;5093160;28;41673;-87
2021/07/09 08:26:47;;;;;;;0.70;0.70;;;;;;;17.93;84.95;99174.22;5097352;27;41470;-88
2021/07/09 08:29:15;;;;;;;0.50;0.50;;;;;;;17.84;84.50;99159.78;5112864;27;38912;-92
2021/07/09 08:31:43;;;;;;;0.40;0.40;;;;;;;17.99;84.58;99179.03;5109701;28;40628;-90
2021/07/09 08:34:11;;;;;;;0.40;0.40;;;;;;;17.95;84.63;99173.09;5093169;28;42578;-90
2021/07/09 08:36:40;;;;;;;0.40;0.40;;;;;;;17.99;84.43;99184.41;5103491;27;41632;-91
2021/07/09 08:39:08;;;;;;;0.30;0.30;;;;;;;18.03;84.66;99175.13;5114740;27;39326;-84
2021/07/09 08:41:35;;;;;;;0.40;0.40;;;;;;;18.06;84.31;99169.47;5112085;27;41089;-85
2021/07/09 08:44:04;;;;;;;0.70;0.70;;;;;;;18.15;84.29;99184.75;5115918;27;42168;-87
2021/07/09 08:46:32;;;;;;;0.60;0.60;;;;;;;18.11;84.22;99185.16;5114085;27;42440;-86
2021/07/09 08:49:00;;;;;;;0.40;0.40;;;;;;;18.18;84.27;99179.09;5113208;27;39270;-85
2021/07/09 08:51:28;;;;;;;0.60;0.60;;;;;;;18.17;84.05;99173.91;5110063;27;40914;-90
2021/07/09 08:53:57;;;;;;;0.50;0.50;;;;;;;18.27;83.88;99172.94;5112978;27;41912;-83
2021/07/09 08:56:25;;;;;;;0.50;0.50;;;;;;;18.43;84.14;99187.63;5108711;28;41251;-83
2021/07/09 08:58:52;;;;;;;0.40;0.40;;;;;;;18.43;83.93;99193.00;5110353;28;40802;-83
2021/07/09 09:01:20;;;;;;;0.73;0.70;;;;;;;18.39;83.80;99187.09;5098316;27;42033;-82
2021/07/09 09:03:48;;;;;;;0.50;0.50;;;;;;;18.41;83.79;99178.91;5113153;27;42869;-87
2021/07/09 09:06:17;;;;;;;0.47;0.47;;;;;;;18.54;83.52;99193.78;5113132;27;41459;-90
2021/07/09 09:08:45;;;;;;;0.40;0.40;;;;;;;18.49;83.43;99187.09;5112341;27;39267;-86
2021/07/09 09:11:14;;;;;;;0.53;0.53;;;;;;;18.52;83.49;99192.19;5112815;27;41644;-83
2021/07/09 09:13:42;;;;;;;0.60;0.60;;;;;;;18.41;83.50;99173.56;5112087;27;41774;-85
2021/07/09 09:16:11;;;;;;;0.40;0.40;;;;;;;18.53;83.62;99185.84;5112025;27;42363;-87
2021/07/09 09:18:42;;;;;;;0.47;0.47;;;;;;;18.51;83.51;99186.00;5112347;27;39002;-86
2021/07/09 09:21:12;;;;;;;1.20;0.77;;;;;;;18.33;83.66;99160.81;5111962;27;41381;-85
2021/07/09 09:23:51;;;;;;;0.30;0.30;;;;;;;18.57;83.53;99189.94;5110323;27;42032;-87
2021/07/09 09:26:53;;;;;;;0.40;0.40;;;;;;;18.55;83.54;99195.44;5101445;27;42007;-86
2021/07/09 09:29:34;;;;;;;0.40;0.40;;;;;;;18.51;83.58;99191.34;5116308;27;38932;-89
2021/07/09 09:32:06;;;;;;;0.50;0.50;;;;;;;18.45;83.67;99175.78;5115683;27;41045;-87
2021/07/09 09:34:41;;;;;;;0.40;0.40;;;;;;;18.52;83.12;99193.06;5133801;27;41919;-90
2021/07/09 09:37:19;;;;;;;0.50;0.50;;;;;;;18.57;83.65;99189.94;5114688;27;41662;-83
2021/07/09 09:39:49;;;;;;;0.40;0.40;;;;;;;18.40;83.65;99166.50;5115948;27;39065;-88
2021/07/09 09:42:21;;;;;;;0.43;0.43;;;;;;;18.61;83.50;99191.41;5112817;27;40657;-86
2021/07/09 09:44:50;;;;;;;0.40;0.40;;;;;;;18.69;83.41;99188.88;5095815;28;41741;-87
2021/07/09 09:47:20;;;;;;;0.40;0.40;;;;;;;18.73;83.27;99171.50;5125954;27;42539;-85
2021/07/09 09:49:54;;;;;;;0.30;0.30;;;;;;;18.78;82.83;99161.22;5132968;27;41230;-84
2021/07/09 09:52:36;;;;;;;0.70;0.70;;;;;;;18.90;82.75;99181.56;5116809;27;40841;-91
2021/07/09 09:55:06;;;;;;;0.80;0.80;;;;;;;18.92;82.53;99189.44;5133844;27;43843;-85
2021/07/09 09:57:36;;;;;;;0.60;0.60;;;;;;;18.89;82.75;99168.28;5115722;27;41170;-84
2021/07/09 10:00:07;;;;;;;0.60;0.60;;;;;;;18.98;82.65;99186.22;5116671;27;39022;-88
2021/07/09 10:02:38;;;;;;;0.60;0.60;;;;;;;19.02;82.45;99196.53;5131370;27;42080;-89
2021/07/09 10:05:06;;;;;;;0.70;0.70;;;;;;;18.92;82.58;99158.09;5116170;27;42139;-85
2021/07/09 10:07:36;;;;;;;0.73;0.73;;;;;;;19.21;82.48;99195.69;5115414;27;42161;-85
2021/07/09 10:10:04;;;;;;;0.50;0.50;;;;;;;19.26;82.21;99177.31;5115114;27;40265;-87
2021/07/09 10:12:33;;;;;;;0.60;0.60;;;;;;;19.37;81.63;99184.38;5131689;27;40795;-87
2021/07/09 10:15:04;;;;;;;0.93;0.93;;;;;;;19.45;81.28;99192.53;5115654;27;42107;-86
2021/07/09 10:17:32;;;;;;;0.70;0.70;;;;;;;19.47;81.22;99193.25;5115484;27;41245;-88
2021/07/09 10:20:02;;;;;;;0.83;0.70;;;;;;;19.60;81.14;99199.19;5133009;27;40322;-87
2021/07/09 10:22:31;;;;;;;0.70;0.70;;;;;;;19.63;81.27;99181.94;5132251;27;42637;-87
2021/07/09 10:24:59;;;;;;;0.80;0.73;;;;;;;19.55;80.88;99179.13;5114307;27;41894;-89
2021/07/09 10:27:28;;;;;;;1.03;1.03;;;;;;;19.62;80.70;99189.16;5111635;28;41631;-88
2021/07/09 10:30:03;;;;;;;0.80;0.80;;;;;;;19.80;80.39;99201.81;5094032;28;38873;-86
2021/07/09 10:32:34;;;;;;;0.73;0.73;;;;;;;19.94;80.35;99201.34;5128340;27;41672;-85
2021/07/09 10:35:02;;;;;;;0.80;0.80;;;;;;;19.99;80.14;99185.66;5122545;27;44730;-85
2021/07/09 10:37:30;;;;;;;1.33;1.20;;;;;;;20.08;79.34;99184.75;5093683;28;41118;-88
2021/07/09 10:40:07;;;;;;;0.80;0.80;;;;;;;20.27;79.04;99206.22;5094182;28;40994;-86
2021/07/09 10:42:40;;;;;;;1.23;1.13;;;;;;;20.13;79.06;99193.25;5113878;27;40740;-85
2021/07/09 10:45:31;;;;;;;0.77;0.77;;;;;;;20.13;78.48;99201.31;5114337;27;41807;-85
2021/07/09 10:48:17;;;;;;;0.73;0.73;;;;;;;20.22;79.05;99216.53;5113905;27;41400;-88
2021/07/09 10:50:46;;;;;;;0.67;0.67;;;;;;;20.20;78.34;99215.84;5114904;27;38891;-87
2021/07/09 10:53:25;;;;;;;0.90;0.90;;;;;;;20.16;78.75;99217.13;5113963;27;40956;-86
2021/07/09 10:55:59;;;;;;;0.90;0.90;;;;;;;20.00;78.96;99208.84;5127027;27;41969;-84
2021/07/09 10:58:42;;;;;;;0.80;0.80;;;;;;;20.00;79.36;99204.31;5107246;27;41562;-87
2021/07/09 11:01:18;;;;;;;1.10;1.10;;;;;;;20.08;79.56;99217.03;5100654;27;39228;-85
2021/07/09 11:03:49;;;;;;;0.90;0.90;;;;;;;20.10;79.75;99223.09;5114283;27;40902;-81
2021/07/09 11:06:19;;;;;;;1.17;1.00;;;;;;;20.02;79.36;99213.09;5114803;27;41885;-89
2021/07/09 11:09:01;;;;;;;0.70;0.70;;;;;;;20.10;79.50;99223.09;5131686;27;41568;-89
2021/07/09 11:11:43;;;;;;;0.90;0.90;;;;;;;20.05;79.06;99228.06;5117686;27;40099;-81
2021/07/09 11:14:14;;;;;;;1.07;1.00;;;;;;;19.97;79.47;99222.59;5124368;27;40946;-84
2021/07/09 11:16:43;;;;;;;1.20;1.10;;;;;;;19.99;79.58;99236.72;5139161;27;44338;-79
2021/07/09 11:19:15;;;;;;;1.10;1.00;;;;;;;20.05;79.56;99233.44;5141428;27;42271;-80
2021/07/09 11:22:05;;;;;;;0.80;0.80;;;;;;;20.15;79.65;99231.59;5135404;27;40212;-81
2021/07/09 11:24:42;;;;;;;0.83;0.83;;;;;;;20.20;79.70;99226.59;5139188;27;40871;-79
2021/07/09 11:27:11;;;;;;;1.50;1.40;;;;;;;20.28;79.68;99232.06;5144218;27;43786;-79
2021/07/09 11:29:41;;;;;;;1.30;1.20;;;;;;;20.25;79.27;99223.47;5133609;27;41279;-82
2021/07/09 11:32:11;;;;;;;1.70;1.60;;;;;;;20.17;78.38;99236.78;5131249;27;41018;-79
2021/07/09 11:34:43;;;;;;;1.80;1.70;;;;;;;20.17;79.04;99236.78;5113838;27;41718;-80
2021/07/09 11:37:12;;;;;;;1.33;1.13;;;;;;;20.23;79.11;99226.31;5131118;27;43090;-83
2021/07/09 11:39:42;;;;;;;1.33;1.20;;;;;;;20.24;79.15;99232.53;5130520;27;41174;-79
2021/07/09 11:42:11;;;;;;;0.93;0.87;;;;;;;20.16;78.58;99213.59;5129218;27;39288;-79
2021/07/09 11:44:42;;;;;;;1.50;1.40;;;;;;;20.27;78.45;99218.81;5132052;27;41857;-79